Time;durP1;ratioP1;P1;durP2;ratioP2;P2;SDS_P1;SDS_P2;PMS_P1;PMS_P2;Temp;Humidity;BMP_temperature;BMP_pressure;BME280_temperature;BME280_humidity;BME280_pressure;Samples;Min_cycle;Max_cycle;Signal;HPM_P1;HPM_P2
2021/05/07 00:01:03;;;;;;;7.43;1.98;;;486.70;1484.80;;;;;;5056204;28;20409;-83
2021/05/07 00:03:29;;;;;;;5.93;2.63;;;486.60;1484.80;;;;;;5056202;28;20063;-83
2021/05/07 00:05:56;;;;;;;6.72;2.15;;;486.60;1484.80;;;;;;5056143;28;20020;-83
2021/05/07 00:08:25;;;;;;;5.15;2.17;;;461.70;1484.80;;;;;;5055682;28;20025;-83
2021/05/07 00:10:52;;;;;;;6.28;2.15;;;486.60;1484.80;;;;;;5055947;28;20123;-79
2021/05/07 00:13:18;;;;;;;7.35;2.03;;;486.60;1484.80;;;;;;5056333;28;20020;-79
2021/05/07 00:15:43;;;;;;;5.78;2.10;;;486.60;1484.80;;;;;;5055820;28;20093;-81
2021/05/07 00:18:09;;;;;;;5.45;1.90;;;486.50;1484.80;;;;;;5055938;28;20027;-80
2021/05/07 00:20:35;;;;;;;5.47;2.05;;;486.50;1484.80;;;;;;5055796;28;20115;-81
2021/05/07 00:23:01;;;;;;;8.82;2.28;;;486.50;1510.40;;;;;;5056433;28;20033;-81
2021/05/07 00:25:27;;;;;;;7.03;2.20;;;486.50;1510.40;;;;;;5074627;28;20020;-83
2021/05/07 00:28:04;;;;;;;4.53;2.20;;;486.50;1510.40;;;;;;5060327;28;20029;-82
2021/05/07 00:30:30;;;;;;;7.20;2.28;;;486.40;1510.40;;;;;;5059679;28;20368;-81
2021/05/07 00:32:56;;;;;;;5.85;2.53;;;486.40;1510.40;;;;;;5059571;28;20035;-83
2021/05/07 00:35:22;;;;;;;5.97;2.20;;;461.70;1536.00;;;;;;5059608;28;20016;-83
2021/05/07 00:37:49;;;;;;;6.40;2.25;;;461.50;1536.00;;;;;;5060426;28;20016;-80
2021/05/07 00:40:15;;;;;;;4.57;2.30;;;461.50;1536.00;;;;;;5059650;28;20115;-83
2021/05/07 00:42:41;;;;;;;4.45;2.40;;;461.50;1561.60;;;;;;5077422;28;20032;-83
2021/05/07 00:45:09;;;;;;;6.18;2.38;;;461.40;1561.60;;;;;;5059609;28;20521;-83
2021/05/07 00:47:38;;;;;;;5.43;2.42;;;461.40;1587.20;;;;;;5059713;28;20020;-83
2021/05/07 00:50:06;;;;;;;6.85;2.42;;;461.30;1587.20;;;;;;5059458;28;20044;-84
2021/05/07 00:52:34;;;;;;;5.97;2.00;;;461.20;1587.20;;;;;;5059533;28;20399;-84
2021/05/07 00:55:02;;;;;;;6.78;2.22;;;461.20;1587.20;;;;;;5077569;28;20020;-83
2021/05/07 00:57:28;;;;;;;8.57;2.00;;;461.20;1587.20;;;;;;5059618;28;20056;-84
2021/05/07 00:59:54;;;;;;;4.72;2.30;;;461.20;1587.20;;;;;;5059425;28;20020;-82
2021/05/07 01:02:20;;;;;;;3.55;2.05;;;461.30;1587.20;;;;;;5059511;28;20020;-81
2021/05/07 01:04:46;;;;;;;5.10;2.20;;;461.30;1587.20;;;;;;5058877;28;20016;-84
2021/05/07 01:07:11;;;;;;;4.90;2.58;;;461.30;1612.80;;;;;;5059474;28;20021;-82
2021/05/07 01:09:37;;;;;;;8.57;3.38;;;461.20;1638.40;;;;;;5059007;28;20539;-81
2021/05/07 01:12:03;;;;;;;5.70;2.33;;;461.10;1638.40;;;;;;5076611;28;20033;-83
2021/05/07 01:14:29;;;;;;;4.70;2.50;;;460.90;1664.00;;;;;;5059361;28;20024;-82
2021/05/07 01:16:55;;;;;;;3.92;2.33;;;460.90;1689.60;;;;;;5058797;28;20455;-82
2021/05/07 01:19:21;;;;;;;5.82;2.40;;;460.90;1689.60;;;;;;5077167;28;20021;-83
2021/05/07 01:21:47;;;;;;;8.77;2.58;;;460.80;1715.20;;;;;;5058940;28;20112;-81
2021/05/07 01:24:12;;;;;;;5.15;2.00;;;460.80;1715.20;;;;;;5059272;28;20077;-81
2021/05/07 01:26:44;;;;;;;6.40;2.65;;;436.10;1715.20;;;;;;5058750;28;20398;-81
2021/05/07 01:29:12;;;;;;;5.47;2.37;;;436.00;1715.20;;;;;;5058921;28;20341;-83
2021/05/07 01:31:41;;;;;;;6.35;2.78;;;435.80;1740.80;;;;;;5058484;28;20024;-83
2021/05/07 01:34:07;;;;;;;6.13;2.30;;;435.70;1766.40;;;;;;5076636;28;20032;-82
2021/05/07 01:36:32;;;;;;;4.13;2.17;;;435.70;1792.00;;;;;;5058173;28;20024;-82
2021/05/07 01:38:58;;;;;;;5.72;2.90;;;435.70;1792.00;;;;;;5058328;28;20154;-83
2021/05/07 01:41:24;;;;;;;5.78;2.33;;;435.60;1792.00;;;;;;5058534;28;20059;-82
2021/05/07 01:43:50;;;;;;;7.60;2.67;;;435.40;1817.60;;;;;;5058610;28;20017;-84
2021/05/07 01:46:15;;;;;;;6.47;2.67;;;435.40;1817.60;;;;;;5058344;28;20020;-81
2021/05/07 01:48:41;;;;;;;7.30;2.40;;;435.40;1792.00;;;;;;5058411;28;20456;-84
2021/05/07 01:51:08;;;;;;;6.93;2.50;;;435.40;1792.00;;;;;;5058377;28;20111;-80
2021/05/07 01:53:35;;;;;;;5.45;3.20;;;435.50;1817.60;;;;;;5058090;28;20093;-84
2021/05/07 01:56:01;;;;;;;7.43;2.63;;;435.40;1817.60;;;;;;5058944;28;20021;-83
2021/05/07 01:58:27;;;;;;;6.07;2.83;;;435.20;1817.60;;;;;;5058203;28;20359;-83
2021/05/07 02:00:53;;;;;;;7.60;2.88;;;435.20;1843.20;;;;;;5057873;28;20029;-84
2021/05/07 02:03:19;;;;;;;6.88;2.80;;;410.40;1843.20;;;;;;5058169;28;20031;-82
2021/05/07 02:05:45;;;;;;;8.88;3.60;;;410.40;1868.80;;;;;;5058111;28;20025;-83
2021/05/07 02:08:11;;;;;;;7.40;3.38;;;410.10;1920.00;;;;;;5058284;28;20027;-84
2021/05/07 02:10:39;;;;;;;8.90;2.67;;;410.20;1920.00;;;;;;5058903;28;20047;-84
2021/05/07 02:13:07;;;;;;;5.68;2.88;;;410.20;1920.00;;;;;;5057499;28;20032;-83
2021/05/07 02:15:33;;;;;;;4.93;2.67;;;410.00;1945.60;;;;;;5057984;28;20020;-82
2021/05/07 02:18:01;;;;;;;6.82;2.83;;;409.60;1945.60;;;;;;5057829;28;20505;-83
2021/05/07 02:20:28;;;;;;;8.30;3.53;;;409.80;1971.20;;;;;;5074063;28;20368;-84
2021/05/07 02:22:55;;;;;;;7.75;2.83;;;409.70;1971.20;;;;;;5074257;28;20082;-85
2021/05/07 02:25:23;;;;;;;9.00;2.72;;;409.70;1996.80;;;;;;5074060;28;20025;-83
2021/05/07 02:27:50;;;;;;;7.78;2.95;;;409.60;1971.20;;;;;;5057466;28;20018;-83
2021/05/07 02:30:19;;;;;;;7.95;3.08;;;409.70;1996.80;;;;;;5074451;28;20028;-84
2021/05/07 02:32:45;;;;;;;6.82;2.90;;;409.70;2022.40;;;;;;5074218;28;20031;-84
2021/05/07 02:35:12;;;;;;;7.03;2.85;;;409.70;2022.40;;;;;;5074218;28;20029;-84
2021/05/07 02:37:38;;;;;;;9.00;3.00;;;409.80;2022.40;;;;;;5057799;28;20047;-83
2021/05/07 02:40:05;;;;;;;8.43;2.58;;;409.70;2022.40;;;;;;5074255;28;20027;-84
2021/05/07 02:42:31;;;;;;;7.55;3.10;;;409.90;1996.80;;;;;;5074999;28;20093;-83
2021/05/07 02:44:57;;;;;;;6.22;3.22;;;409.90;2022.40;;;;;;5075563;28;20016;-83
2021/05/07 02:47:23;;;;;;;10.07;3.50;;;409.90;2022.40;;;;;;5072354;28;20056;-85
2021/05/07 02:49:49;;;;;;;10.20;3.45;;;409.80;2048.00;;;;;;5056245;28;20039;-83
2021/05/07 02:52:15;;;;;;;5.80;2.97;;;409.80;2048.00;;;;;;5056914;28;20032;-84
2021/05/07 02:54:41;;;;;;;7.20;3.22;;;409.80;2073.60;;;;;;5055858;28;20024;-84
2021/05/07 02:57:07;;;;;;;9.55;3.75;;;409.70;2073.60;;;;;;5056571;28;20024;-84
2021/05/07 02:59:33;;;;;;;8.05;3.35;;;409.80;2073.60;;;;;;5056425;28;20119;-84
2021/05/07 03:01:59;;;;;;;11.25;3.10;;;384.60;2124.80;;;;;;5056532;28;20147;-85
2021/05/07 03:04:25;;;;;;;9.60;3.42;;;384.20;2176.00;;;;;;5056928;28;20111;-85
2021/05/07 03:06:51;;;;;;;7.03;3.40;;;384.30;2201.60;;;;;;5056944;28;20032;-85
2021/05/07 03:09:18;;;;;;;7.93;3.92;;;384.40;2176.00;;;;;;5056610;28;20082;-85
2021/05/07 03:11:44;;;;;;;7.63;3.63;;;384.20;2227.20;;;;;;5056883;28;20035;-84
2021/05/07 03:14:10;;;;;;;8.57;3.90;;;384.30;2201.60;;;;;;5057177;28;20025;-83
2021/05/07 03:16:36;;;;;;;7.55;3.88;;;384.10;2227.20;;;;;;5074717;28;20024;-84
2021/05/07 03:19:03;;;;;;;5.03;3.40;;;359.30;2252.80;;;;;;5056815;28;20024;-85
2021/05/07 03:21:29;;;;;;;6.72;3.08;;;384.00;2252.80;;;;;;5056547;28;20414;-85
2021/05/07 03:23:55;;;;;;;8.18;3.53;;;359.30;2278.40;;;;;;5056695;28;20024;-88
2021/05/07 03:26:21;;;;;;;8.18;3.80;;;359.20;2329.60;;;;;;5056594;28;20055;-87
2021/05/07 03:28:47;;;;;;;8.05;3.78;;;359.30;2278.40;;;;;;5057109;28;20412;-87
2021/05/07 03:31:13;;;;;;;8.98;3.45;;;359.30;2329.60;;;;;;5056170;28;20452;-86
2021/05/07 03:33:39;;;;;;;6.95;3.25;;;359.30;2304.00;;;;;;5057082;28;20024;-84
2021/05/07 03:36:06;;;;;;;10.68;5.70;;;359.30;2304.00;;;;;;5056410;28;20497;-85
2021/05/07 03:38:32;;;;;;;7.97;4.75;;;359.20;2329.60;;;;;;5056358;28;20020;-84
2021/05/07 03:40:58;;;;;;;10.75;5.13;;;359.00;2329.60;;;;;;5056391;28;20115;-85
2021/05/07 03:43:24;;;;;;;10.07;5.20;;;359.30;2329.60;;;;;;5056519;28;20056;-84
2021/05/07 03:45:50;;;;;;;13.52;6.13;;;359.00;2329.60;;;;;;5056145;28;20043;-86
2021/05/07 03:48:20;;;;;;;15.02;4.70;;;359.00;2329.60;;;;;;5056242;28;20028;-83
2021/05/07 03:50:50;;;;;;;11.57;4.20;;;359.00;2329.60;;;;;;5056250;28;20020;-84
2021/05/07 03:53:17;;;;;;;7.55;3.90;;;358.80;2329.60;;;;;;5055875;28;20083;-86
2021/05/07 03:55:44;;;;;;;9.23;4.07;;;359.00;2329.60;;;;;;5056024;28;20524;-85
2021/05/07 03:58:10;;;;;;;8.27;4.18;;;358.80;2329.60;;;;;;5056130;28;20056;-86
2021/05/07 04:00:37;;;;;;;10.48;4.05;;;358.40;2329.60;;;;;;5056011;28;20021;-86
2021/05/07 04:03:04;;;;;;;7.38;4.13;;;358.60;2329.60;;;;;;5055861;28;20016;-83
2021/05/07 04:05:31;;;;;;;11.25;5.05;;;358.60;2329.60;;;;;;5055676;28;20020;-87
2021/05/07 04:08:17;;;;;;;10.95;5.18;;;358.70;2329.60;;;;;;5055964;28;20460;-86
2021/05/07 04:10:45;;;;;;;13.25;5.22;;;358.70;2329.60;;;;;;5055822;28;20153;-86
2021/05/07 04:15:39;;;;;;;13.05;4.82;;;359.20;2329.60;;;;;;5074045;28;20009;-85
2021/05/07 04:18:05;;;;;;;12.30;4.75;;;358.70;2329.60;;;;;;5056199;28;20028;-85
2021/05/07 04:20:31;;;;;;;9.20;4.45;;;358.60;2329.60;;;;;;5055847;28;20124;-86
2021/05/07 04:22:57;;;;;;;12.27;5.15;;;358.60;2329.60;;;;;;5055646;28;20046;-85
2021/05/07 04:25:23;;;;;;;9.90;5.38;;;358.50;2329.60;;;;;;5055760;28;20021;-89
2021/05/07 04:27:49;;;;;;;15.02;5.22;;;358.60;2329.60;;;;;;5055698;28;20024;-85
2021/05/07 04:30:16;;;;;;;15.15;5.93;;;358.70;2329.60;;;;;;5055599;28;20025;-85
2021/05/07 04:32:43;;;;;;;20.25;5.43;;;358.60;2329.60;;;;;;5055415;28;20023;-85
2021/05/07 04:35:12;;;;;;;9.40;4.38;;;358.70;2329.60;;;;;;5055706;28;20108;-86
2021/05/07 04:37:38;;;;;;;9.82;4.85;;;358.50;2329.60;;;;;;5055756;28;20020;-84
2021/05/07 04:40:08;;;;;;;8.25;4.53;;;358.70;2329.60;;;;;;5038815;28;20093;-86
2021/05/07 04:42:40;;;;;;;12.88;4.93;;;359.00;2329.60;;;;;;5055496;28;20066;-85
2021/05/07 04:45:07;;;;;;;8.43;4.73;;;358.60;2329.60;;;;;;5055606;28;20020;-86
2021/05/07 04:47:33;;;;;;;12.13;4.53;;;358.40;2329.60;;;;;;5055454;28;20257;-86
2021/05/07 04:49:59;;;;;;;9.02;4.50;;;358.50;2329.60;;;;;;5039510;28;20029;-84
2021/05/07 04:52:24;;;;;;;9.93;5.22;;;358.80;2329.60;;;;;;5059520;28;20157;-85
2021/05/07 04:54:50;;;;;;;14.80;5.40;;;358.60;2329.60;;;;;;5058589;28;20111;-84
2021/05/07 04:57:17;;;;;;;10.20;5.57;;;358.60;2329.60;;;;;;5059902;28;20028;-84
2021/05/07 04:59:44;;;;;;;9.20;5.00;;;358.80;2329.60;;;;;;5073925;28;20038;-86
2021/05/07 05:02:10;;;;;;;15.07;6.38;;;358.70;2329.60;;;;;;5055159;28;20012;-85
2021/05/07 05:04:37;;;;;;;21.80;6.50;;;358.60;2329.60;;;;;;5073584;28;20020;-84
2021/05/07 05:07:07;;;;;;;21.63;6.32;;;358.70;2329.60;;;;;;5055323;28;20016;-86
2021/05/07 05:09:33;;;;;;;17.58;6.22;;;358.80;2329.60;;;;;;5055176;28;20013;-85
2021/05/07 05:11:59;;;;;;;18.77;6.90;;;359.10;2329.60;;;;;;5056717;28;20058;-85
2021/05/07 05:14:25;;;;;;;17.10;7.60;;;359.00;2329.60;;;;;;5059725;28;20119;-86
2021/05/07 05:16:51;;;;;;;15.43;7.45;;;359.30;2329.60;;;;;;5058933;28;20032;-85
2021/05/07 05:19:17;;;;;;;15.63;7.03;;;359.20;2329.60;;;;;;5059076;28;20020;-85
2021/05/07 05:21:43;;;;;;;18.42;7.05;;;359.20;2329.60;;;;;;5058749;28;20020;-86
2021/05/07 05:24:09;;;;;;;15.32;7.20;;;384.10;2329.60;;;;;;5059056;28;20020;-86
2021/05/07 05:26:35;;;;;;;17.23;7.15;;;384.30;2329.60;;;;;;5061107;28;20035;-83
2021/05/07 05:29:01;;;;;;;18.17;7.55;;;384.60;2329.60;;;;;;5063991;28;20020;-83
2021/05/07 05:31:27;;;;;;;22.88;8.68;;;384.60;2329.60;;;;;;5060390;28;20456;-86
2021/05/07 05:33:53;;;;;;;21.67;8.27;;;384.80;2329.60;;;;;;5058756;28;20452;-83
2021/05/07 05:36:19;;;;;;;14.82;7.15;;;409.60;2355.20;;;;;;5058583;28;20023;-84
2021/05/07 05:38:44;;;;;;;18.27;6.85;;;409.60;2355.20;;;;;;5058565;28;20020;-84
2021/05/07 05:41:10;;;;;;;23.20;8.93;;;409.70;2355.20;;;;;;5059547;28;20021;-83
2021/05/07 05:43:36;;;;;;;13.43;7.43;;;384.90;2329.60;;;;;;5058125;28;20020;-83
2021/05/07 05:46:02;;;;;;;23.63;8.30;;;409.60;2355.20;;;;;;5058528;28;20025;-87
2021/05/07 05:48:29;;;;;;;19.13;6.85;;;384.90;2329.60;;;;;;5057269;28;20020;-84
2021/05/07 05:50:55;;;;;;;18.70;7.20;;;384.90;2329.60;;;;;;5075196;28;20021;-85
2021/05/07 05:53:22;;;;;;;15.35;7.55;;;384.90;2329.60;;;;;;5073847;28;20131;-84
2021/05/07 05:55:47;;;;;;;15.85;6.72;;;409.60;2355.20;;;;;;5075280;28;20337;-85
2021/05/07 05:58:14;;;;;;;19.35;6.75;;;409.60;2355.20;;;;;;5074920;28;20049;-86
2021/05/07 06:00:39;;;;;;;12.60;5.55;;;409.80;2355.20;;;;;;5075416;28;20024;-85
2021/05/07 06:03:05;;;;;;;15.07;6.80;;;410.00;2355.20;;;;;;5075507;28;20364;-86
2021/05/07 06:05:31;;;;;;;14.95;7.00;;;410.00;2355.20;;;;;;5075798;28;20463;-87
2021/05/07 06:07:57;;;;;;;11.98;5.55;;;409.90;2355.20;;;;;;5074833;28;20103;-85
2021/05/07 06:10:23;;;;;;;17.10;6.00;;;410.30;2355.20;;;;;;5074670;28;20108;-85
2021/05/07 06:12:49;;;;;;;15.75;8.10;;;410.50;2355.20;;;;;;5074258;28;20039;-86
2021/05/07 06:15:17;;;;;;;14.20;8.15;;;435.30;2304.00;;;;;;5074688;28;20105;-88
2021/05/07 06:17:44;;;;;;;16.98;7.35;;;435.20;2304.00;;;;;;5074439;28;20020;-85
2021/05/07 06:20:11;;;;;;;13.77;6.65;;;435.40;2278.40;;;;;;5059306;28;20028;-86
2021/05/07 06:22:38;;;;;;;13.75;6.40;;;435.50;2252.80;;;;;;5074507;28;20101;-84
2021/05/07 06:25:09;;;;;;;10.35;5.47;;;435.70;2252.80;;;;;;5073761;28;20438;-86
2021/05/07 06:27:35;;;;;;;14.05;5.93;;;435.80;2201.60;;;;;;5075070;28;20043;-82
2021/05/07 06:30:01;;;;;;;15.65;6.20;;;436.10;2201.60;;;;;;5058379;28;20024;-83
2021/05/07 06:32:26;;;;;;;17.88;7.68;;;460.90;2201.60;;;;;;5075342;28;20371;-83
2021/05/07 06:34:52;;;;;;;14.57;6.68;;;461.00;2176.00;;;;;;5074862;28;20024;-82
2021/05/07 06:37:18;;;;;;;12.52;5.25;;;461.10;2176.00;;;;;;5074081;28;20431;-82
2021/05/07 06:39:44;;;;;;;11.27;5.05;;;461.20;2176.00;;;;;;5073913;28;20116;-80
2021/05/07 06:42:10;;;;;;;13.52;5.93;;;461.20;2176.00;;;;;;5074567;28;20025;-80
2021/05/07 06:44:36;;;;;;;13.57;6.32;;;461.40;2176.00;;;;;;5074765;28;20509;-82
2021/05/07 06:47:02;;;;;;;10.23;5.20;;;461.50;2176.00;;;;;;5073781;28;20021;-81
2021/05/07 06:49:28;;;;;;;11.68;6.45;;;461.50;2201.60;;;;;;5072922;28;20074;-84
2021/05/07 06:51:54;;;;;;;14.60;5.38;;;461.70;2176.00;;;;;;5075678;28;20032;-83
2021/05/07 06:54:26;;;;;;;9.48;4.38;;;461.60;2201.60;;;;;;5055927;28;20464;-84
2021/05/07 06:56:56;;;;;;;11.75;4.95;;;461.50;2201.60;;;;;;5075401;28;20027;-81
2021/05/07 06:59:23;;;;;;;13.98;5.38;;;461.70;2201.60;;;;;;5074015;28;20021;-82
2021/05/07 07:01:49;;;;;;;14.13;6.60;;;486.50;2227.20;;;;;;5073655;28;20052;-83
2021/05/07 07:04:15;;;;;;;15.63;6.63;;;486.70;2176.00;;;;;;5073657;28;20368;-84
2021/05/07 07:06:41;;;;;;;16.13;6.55;;;486.80;2176.00;;;;;;5073193;28;20029;-82
2021/05/07 07:09:07;;;;;;;12.05;4.72;;;487.00;2176.00;;;;;;5073600;28;20031;-82
2021/05/07 07:11:32;;;;;;;12.50;4.35;;;487.10;2150.40;;;;;;5074705;28;20029;-79
2021/05/07 07:13:58;;;;;;;12.18;4.43;;;487.10;2124.80;;;;;;5074713;28;20457;-82
2021/05/07 07:16:24;;;;;;;13.30;4.13;;;487.20;2150.40;;;;;;5073337;28;20024;-83
2021/05/07 07:18:50;;;;;;;11.00;4.32;;;487.30;2124.80;;;;;;5073180;28;20016;-80
2021/05/07 07:21:16;;;;;;;15.93;4.78;;;487.30;2124.80;;;;;;5074360;28;20384;-80
2021/05/07 07:23:42;;;;;;;9.13;3.95;;;487.30;2099.20;;;;;;5073256;28;20317;-80
2021/05/07 07:26:08;;;;;;;10.82;4.47;;;512.10;2073.60;;;;;;5069369;28;20016;-81
2021/05/07 07:28:38;;;;;;;13.55;5.20;;;512.30;2073.60;;;;;;5054689;28;20031;-79
2021/05/07 07:31:06;;;;;;;12.13;3.88;;;512.70;2073.60;;;;;;5064885;28;20438;-81
2021/05/07 07:33:32;;;;;;;12.73;4.20;;;512.90;1996.80;;;;;;5070229;28;20020;-78
2021/05/07 07:35:59;;;;;;;8.73;3.65;;;537.70;1996.80;;;;;;5053383;28;20487;-79
2021/05/07 07:38:25;;;;;;;6.72;3.47;;;537.80;1996.80;;;;;;5073889;28;20150;-82
2021/05/07 07:40:52;;;;;;;15.73;4.90;;;537.90;1945.60;;;;;;5071338;28;20389;-79
2021/05/07 07:43:20;;;;;;;7.03;3.45;;;538.00;1971.20;;;;;;5054603;28;20043;-80
2021/05/07 07:45:47;;;;;;;9.85;3.33;;;538.00;1843.20;;;;;;5055651;28;20031;-84
2021/05/07 07:48:13;;;;;;;8.55;4.07;;;538.20;1843.20;;;;;;5072432;28;20461;-80
2021/05/07 07:50:38;;;;;;;12.93;4.10;;;538.40;1868.80;;;;;;5072084;28;20028;-82
2021/05/07 07:53:05;;;;;;;9.18;3.92;;;538.50;1868.80;;;;;;5072723;28;20048;-83
2021/05/07 07:55:30;;;;;;;14.20;5.05;;;563.40;1868.80;;;;;;5073121;28;20449;-81
2021/05/07 07:57:56;;;;;;;13.52;4.15;;;563.50;1817.60;;;;;;5072712;28;20020;-81
2021/05/07 08:00:22;;;;;;;8.48;3.90;;;538.50;1792.00;;;;;;5073623;28;20021;-82
2021/05/07 08:02:48;;;;;;;12.75;4.75;;;563.50;1817.60;;;;;;5072793;28;20063;-82
2021/05/07 08:05:15;;;;;;;13.25;6.97;;;563.80;1766.40;;;;;;5072832;28;20384;-83
2021/05/07 08:07:41;;;;;;;21.60;6.35;;;564.10;1740.80;;;;;;5073333;28;20505;-81
2021/05/07 08:10:09;;;;;;;10.73;6.45;;;589.10;1740.80;;;;;;5072419;28;20028;-83
2021/05/07 08:12:35;;;;;;;14.65;7.75;;;589.20;1715.20;;;;;;5072409;28;20021;-83
2021/05/07 08:15:02;;;;;;;13.48;6.15;;;589.40;1689.60;;;;;;5072836;28;20115;-83
2021/05/07 08:17:28;;;;;;;16.25;5.30;;;589.30;1638.40;;;;;;5072244;28;20056;-81
2021/05/07 08:19:54;;;;;;;13.43;5.53;;;589.70;1587.20;;;;;;5068564;28;20044;-81
2021/05/07 08:22:19;;;;;;;12.45;6.47;;;614.50;1587.20;;;;;;5056027;28;20486;-82
2021/05/07 08:24:45;;;;;;;11.18;3.42;;;614.70;1587.20;;;;;;5054962;28;20116;-81
2021/05/07 08:27:12;;;;;;;9.65;3.65;;;614.40;1510.40;;;;;;5055902;28;20017;-82
2021/05/07 08:29:38;;;;;;;8.10;4.20;;;589.60;1510.40;;;;;;5056370;28;20024;-82
2021/05/07 08:32:05;;;;;;;11.27;4.30;;;614.40;1510.40;;;;;;5055820;28;20064;-81
2021/05/07 08:34:31;;;;;;;15.15;7.90;;;614.80;1459.20;;;;;;5055422;28;20111;-81
2021/05/07 08:36:57;;;;;;;11.45;6.82;;;614.80;1510.40;;;;;;5055764;28;20017;-79
2021/05/07 08:39:23;;;;;;;13.85;7.07;;;614.90;1510.40;;;;;;5073417;28;20032;-80
2021/05/07 08:41:49;;;;;;;11.88;5.50;;;615.30;1459.20;;;;;;5055789;28;20107;-82
2021/05/07 08:44:18;;;;;;;9.98;5.43;;;640.10;1408.00;;;;;;5055956;28;20463;-83
2021/05/07 08:46:45;;;;;;;15.02;5.97;;;640.40;1408.00;;;;;;5057078;28;20373;-82
2021/05/07 08:49:15;;;;;;;9.98;5.05;;;640.50;1408.00;;;;;;5058725;28;20017;-83
2021/05/07 08:51:41;;;;;;;8.80;3.55;;;640.70;1356.80;;;;;;5046587;28;20067;-81
2021/05/07 08:54:10;;;;;;;10.20;4.78;;;640.20;1305.60;;;;;;5074544;28;20062;-82
2021/05/07 08:56:38;;;;;;;12.35;4.43;;;640.40;1331.20;;;;;;5056785;28;20029;-81
2021/05/07 08:59:04;;;;;;;12.05;4.45;;;640.70;1356.80;;;;;;5055890;28;20017;-81
2021/05/07 09:01:44;;;;;;;9.45;4.10;;;665.60;1331.20;;;;;;5058820;28;20054;-81
2021/05/07 09:04:13;;;;;;;8.82;3.53;;;665.90;1331.20;;;;;;5056406;28;20448;-81
2021/05/07 09:06:50;;;;;;;10.98;3.25;;;666.00;1305.60;;;;;;5058632;28;20056;-83
2021/05/07 09:09:27;;;;;;;10.70;3.47;;;665.70;1280.00;;;;;;5059176;28;20055;-81
2021/05/07 09:11:55;;;;;;;7.80;3.28;;;666.00;1305.60;;;;;;5057786;28;20032;-81
2021/05/07 09:14:23;;;;;;;5.65;2.17;;;666.40;1228.80;;;;;;5058861;28;20086;-81
2021/05/07 09:17:02;;;;;;;7.32;3.10;;;666.30;1177.60;;;;;;5058040;28;20025;-79
2021/05/07 09:19:30;;;;;;;8.38;3.33;;;666.50;1177.60;;;;;;5057685;28;20028;-80
2021/05/07 09:21:57;;;;;;;10.63;5.90;;;666.20;1177.60;;;;;;5058742;28;20029;-80
2021/05/07 09:24:37;;;;;;;9.52;4.25;;;666.20;1203.20;;;;;;5058072;28;20048;-82
2021/05/07 09:27:07;;;;;;;9.45;3.97;;;666.10;1177.60;;;;;;5058690;28;20021;-82
2021/05/07 09:29:35;;;;;;;8.60;2.95;;;666.30;1075.20;;;;;;5057448;28;20074;-79
2021/05/07 09:32:03;;;;;;;8.70;3.30;;;666.20;1049.60;;;;;;5058233;28;20051;-81
2021/05/07 09:34:35;;;;;;;7.53;2.83;;;666.30;1024.00;;;;;;5074585;28;20047;-81
2021/05/07 09:37:13;;;;;;;11.75;2.78;;;666.20;998.40;;;;;;5074697;28;20063;-81
2021/05/07 09:39:39;;;;;;;15.70;6.25;;;666.20;998.40;;;;;;5075261;28;20458;-83
2021/05/07 09:42:05;;;;;;;7.18;3.72;;;666.10;998.40;;;;;;5074598;28;20027;-77
2021/05/07 09:44:35;;;;;;;9.98;4.78;;;666.00;972.80;;;;;;5076353;28;20016;-78
2021/05/07 09:47:12;;;;;;;10.60;5.30;;;666.30;998.40;;;;;;5075312;28;20021;-80
2021/05/07 09:49:38;;;;;;;11.30;5.75;;;666.30;998.40;;;;;;5074877;28;20028;-80
2021/05/07 09:52:05;;;;;;;7.60;2.85;;;666.50;1024.00;;;;;;5057859;28;20059;-79
2021/05/07 09:54:30;;;;;;;10.23;3.28;;;691.20;998.40;;;;;;5075815;28;20024;-80
2021/05/07 09:56:58;;;;;;;8.40;4.00;;;691.30;1024.00;;;;;;5072489;28;20024;-81
2021/05/07 09:59:24;;;;;;;8.63;3.75;;;691.20;998.40;;;;;;5053840;28;20066;-80
2021/05/07 10:01:50;;;;;;;10.90;4.07;;;691.50;972.80;;;;;;5072821;28;20032;-78
2021/05/07 10:04:16;;;;;;;9.20;3.40;;;691.40;947.20;;;;;;5071060;28;20024;-79
2021/05/07 10:06:43;;;;;;;5.88;2.03;;;691.30;947.20;;;;;;5074920;28;20024;-80
2021/05/07 10:09:10;;;;;;;3.95;2.10;;;666.50;972.80;;;;;;5074321;28;20024;-81
2021/05/07 10:11:42;;;;;;;4.05;2.15;;;666.40;972.80;;;;;;5057777;28;20029;-81
2021/05/07 10:14:19;;;;;;;6.20;2.58;;;691.20;947.20;;;;;;5058560;28;20027;-80
2021/05/07 10:16:45;;;;;;;8.77;2.83;;;666.30;972.80;;;;;;5073730;28;20036;-81
2021/05/07 10:19:13;;;;;;;11.23;2.60;;;691.20;972.80;;;;;;5057697;28;20031;-81
2021/05/07 10:21:40;;;;;;;8.73;2.80;;;666.40;998.40;;;;;;5075275;28;20028;-82
2021/05/07 10:24:11;;;;;;;8.35;3.00;;;691.30;998.40;;;;;;5056982;28;20033;-81
2021/05/07 10:26:43;;;;;;;9.20;3.67;;;691.40;998.40;;;;;;5057659;28;20020;-80
2021/05/07 10:29:21;;;;;;;8.77;2.85;;;691.50;998.40;;;;;;5057940;28;20467;-80
2021/05/07 10:31:50;;;;;;;6.05;2.72;;;691.70;972.80;;;;;;5057040;28;20464;-78
2021/05/07 10:34:17;;;;;;;7.22;2.03;;;691.70;972.80;;;;;;5057445;28;20067;-80
2021/05/07 10:36:54;;;;;;;8.93;3.05;;;691.60;972.80;;;;;;5056959;28;20032;-80
2021/05/07 10:39:31;;;;;;;7.88;3.47;;;692.10;972.80;;;;;;5055374;28;20360;-79
2021/05/07 10:42:00;;;;;;;35.60;7.15;;;691.90;972.80;;;;;;5057811;28;20483;-79
2021/05/07 10:44:27;;;;;;;28.25;9.98;;;692.10;947.20;;;;;;5056820;28;20016;-81
2021/05/07 10:47:06;;;;;;;122.95;18.42;;;717.10;1024.00;;;;;;5057166;28;20020;-80
2021/05/07 10:49:45;;;;;;;9.55;3.88;;;716.90;998.40;;;;;;5058756;28;20420;-80
2021/05/07 10:52:13;;;;;;;11.85;3.72;;;717.10;998.40;;;;;;5056849;28;20119;-81
2021/05/07 10:54:45;;;;;;;18.90;3.25;;;717.20;998.40;;;;;;5057686;28;20116;-80
2021/05/07 10:57:39;;;;;;;9.80;3.03;;;717.40;972.80;;;;;;5056698;28;20020;-80
2021/05/07 11:00:12;;;;;;;8.00;2.60;;;717.70;947.20;;;;;;5071530;28;20043;-81
2021/05/07 11:02:43;;;;;;;13.23;3.50;;;717.70;972.80;;;;;;5075198;28;20145;-82
2021/05/07 11:05:10;;;;;;;15.15;3.30;;;717.40;972.80;;;;;;5056567;28;20020;-80
2021/05/07 11:07:36;;;;;;;8.32;2.28;;;717.20;998.40;;;;;;5074920;28;20020;-78
2021/05/07 11:22:40;;;;;;;11.85;3.28;;;716.90;998.40;;;;;;5091600;28;20772;-78
2021/05/07 11:25:07;;;;;;;10.13;3.80;;;692.10;998.40;;;;;;5089692;28;20035;-80
2021/05/07 11:27:36;;;;;;;10.15;4.25;;;691.90;998.40;;;;;;5089062;28;20024;-79
2021/05/07 11:30:06;;;;;;;11.90;5.00;;;691.90;998.40;;;;;;5089268;28;20033;-80
2021/05/07 11:32:32;;;;;;;7.13;2.28;;;691.90;998.40;;;;;;5089691;28;20357;-79
2021/05/07 11:35:04;;;;;;;9.43;3.20;;;691.90;998.40;;;;;;5089066;28;20538;-80
2021/05/07 11:37:30;;;;;;;12.02;3.60;;;691.90;1024.00;;;;;;5091078;28;20028;-80
2021/05/07 11:40:01;;;;;;;15.77;6.07;;;691.80;998.40;;;;;;5089065;28;20103;-80
2021/05/07 11:42:33;;;;;;;11.63;5.35;;;691.80;998.40;;;;;;5088818;28;20021;-79
2021/05/07 11:45:00;;;;;;;10.52;6.35;;;691.60;998.40;;;;;;5087970;28;20029;-82
2021/05/07 11:47:33;;;;;;;10.48;4.53;;;691.60;972.80;;;;;;5089390;28;20032;-81
2021/05/07 11:50:00;;;;;;;6.90;2.53;;;691.70;972.80;;;;;;5084278;28;20029;-80
2021/05/07 11:52:46;;;;;;;9.02;2.40;;;691.70;921.60;;;;;;5069582;28;20025;-79
2021/05/07 11:55:28;;;;;;;5.13;2.00;;;691.80;921.60;;;;;;5081646;28;20028;-80
2021/05/07 11:58:05;;;;;;;9.10;2.80;;;692.10;921.60;;;;;;5076790;28;20067;-79
2021/05/07 12:00:32;;;;;;;8.40;3.55;;;716.80;921.60;;;;;;5072316;28;20098;-79
2021/05/07 12:03:09;;;;;;;15.50;4.82;;;716.90;921.60;;;;;;5068282;28;20063;-82
2021/05/07 12:05:37;;;;;;;14.73;7.90;;;716.90;921.60;;;;;;5068511;28;20119;-81
2021/05/07 12:08:03;;;;;;;7.30;4.43;;;716.90;947.20;;;;;;5069005;28;20025;-80
2021/05/07 12:10:31;;;;;;;7.90;5.18;;;692.10;921.60;;;;;;5068446;28;20209;-80
2021/05/07 12:12:58;;;;;;;6.65;3.08;;;716.80;947.20;;;;;;5070561;28;20104;-81
2021/05/07 12:15:33;;;;;;;8.18;3.83;;;716.80;947.20;;;;;;5070281;28;20374;-80
2021/05/07 12:17:59;;;;;;;9.48;3.33;;;716.90;947.20;;;;;;5069784;28;20024;-80
2021/05/07 12:20:27;;;;;;;16.58;4.53;;;717.00;947.20;;;;;;5071876;28;20029;-79
2021/05/07 12:22:55;;;;;;;4.85;2.17;;;717.10;947.20;;;;;;5072662;28;20031;-80
2021/05/07 12:25:28;;;;;;;11.32;3.25;;;717.10;921.60;;;;;;5074642;28;20097;-81
2021/05/07 12:27:56;;;;;;;10.52;4.75;;;716.80;947.20;;;;;;5075586;28;20020;-81
2021/05/07 12:30:30;;;;;;;8.40;2.45;;;716.80;972.80;;;;;;5077930;28;20035;-81
2021/05/07 12:33:00;;;;;;;6.00;3.47;;;692.10;921.60;;;;;;5077952;28;20039;-78